sensor_id;sensor_type;location;lat;lon;timestamp;pressure;altitude;pressure_sealevel;temperature;humidity
16451;BME280;12243;42.708;23.310;2022-09-09T00:00:19;95248.91;;;18.88;78.95
16451;BME280;12243;42.708;23.310;2022-09-09T00:02:55;95242.69;;;18.80;78.78
16451;BME280;12243;42.708;23.310;2022-09-09T00:05:29;95245.16;;;18.82;78.80
16451;BME280;12243;42.708;23.310;2022-09-09T00:07:59;95241.06;;;18.79;79.50
16451;BME280;12243;42.708;23.310;2022-09-09T00:10:32;95229.19;;;18.75;79.56
16451;BME280;12243;42.708;23.310;2022-09-09T00:13:14;95235.66;;;18.73;80.25
16451;BME280;12243;42.708;23.310;2022-09-09T00:15:47;95241.91;;;18.72;80.64
16451;BME280;12243;42.708;23.310;2022-09-09T00:18:24;95239.25;;;18.72;81.26
16451;BME280;12243;42.708;23.310;2022-09-09T00:20:58;95235.97;;;18.62;81.52
16451;BME280;12243;42.708;23.310;2022-09-09T00:23:31;95221.81;;;18.63;82.06
16451;BME280;12243;42.708;23.310;2022-09-09T00:26:10;95224.47;;;18.54;81.71
16451;BME280;12243;42.708;23.310;2022-09-09T00:28:48;95217.41;;;18.55;82.06
16451;BME280;12243;42.708;23.310;2022-09-09T00:31:23;95209.34;;;18.48;82.76
16451;BME280;12243;42.708;23.310;2022-09-09T00:33:50;95210.66;;;18.44;83.22
16451;BME280;12243;42.708;23.310;2022-09-09T00:36:22;95210.38;;;18.39;83.66
16451;BME280;12243;42.708;23.310;2022-09-09T00:38:52;95202.81;;;18.36;84.24
16451;BME280;12243;42.708;23.310;2022-09-09T00:41:26;95194.50;;;18.47;84.88
16451;BME280;12243;42.708;23.310;2022-09-09T00:44:03;95190.38;;;18.53;83.74
16451;BME280;12243;42.708;23.310;2022-09-09T00:46:56;95192.47;;;18.57;82.25
16451;BME280;12243;42.708;23.310;2022-09-09T00:49:38;95207.00;;;18.53;81.76
16451;BME280;12243;42.708;23.310;2022-09-09T00:52:19;95207.06;;;18.37;83.04
16451;BME280;12243;42.708;23.310;2022-09-09T00:54:55;95202.16;;;18.34;83.06
16451;BME280;12243;42.708;23.310;2022-09-09T00:57:29;95204.28;;;18.39;83.33
16451;BME280;12243;42.708;23.310;2022-09-09T01:00:16;95196.53;;;18.37;82.72
16451;BME280;12243;42.708;23.310;2022-09-09T01:02:51;95201.78;;;18.37;82.58
16451;BME280;12243;42.708;23.310;2022-09-09T01:05:23;95207.59;;;18.32;82.93
16451;BME280;12243;42.708;23.310;2022-09-09T01:07:54;95209.41;;;18.32;82.81
16451;BME280;12243;42.708;23.310;2022-09-09T01:10:27;95209.78;;;18.13;84.16
16451;BME280;12243;42.708;23.310;2022-09-09T01:12:58;95205.56;;;18.03;84.20
16451;BME280;12243;42.708;23.310;2022-09-09T01:15:31;95207.53;;;18.01;85.09
16451;BME280;12243;42.708;23.310;2022-09-09T01:18:02;95215.78;;;18.06;84.88
16451;BME280;12243;42.708;23.310;2022-09-09T01:20:39;95212.63;;;18.11;84.91
16451;BME280;12243;42.708;23.310;2022-09-09T01:23:26;95207.19;;;18.04;84.65
16451;BME280;12243;42.708;23.310;2022-09-09T01:26:23;95203.97;;;17.86;85.58
16451;BME280;12243;42.708;23.310;2022-09-09T01:28:54;95199.03;;;17.83;86.00
16451;BME280;12243;42.708;23.310;2022-09-09T01:31:33;95193.41;;;17.86;85.89
16451;BME280;12243;42.708;23.310;2022-09-09T01:34:04;95208.41;;;17.85;86.28
16451;BME280;12243;42.708;23.310;2022-09-09T01:36:39;95213.16;;;17.90;86.13
16451;BME280;12243;42.708;23.310;2022-09-09T01:39:08;95216.81;;;17.89;86.12
16451;BME280;12243;42.708;23.310;2022-09-09T01:41:37;95225.69;;;17.80;86.68
16451;BME280;12243;42.708;23.310;2022-09-09T01:44:09;95228.00;;;17.75;87.45
16451;BME280;12243;42.708;23.310;2022-09-09T01:46:39;95220.25;;;17.73;87.12
16451;BME280;12243;42.708;23.310;2022-09-09T01:49:12;95219.44;;;17.73;87.69
16451;BME280;12243;42.708;23.310;2022-09-09T01:51:41;95224.88;;;17.79;86.38
16451;BME280;12243;42.708;23.310;2022-09-09T01:54:12;95224.53;;;17.91;86.88
16451;BME280;12243;42.708;23.310;2022-09-09T01:56:47;95235.09;;;17.82;87.18
16451;BME280;12243;42.708;23.310;2022-09-09T01:59:40;95230.31;;;17.78;88.40
16451;BME280;12243;42.708;23.310;2022-09-09T02:02:11;95222.72;;;17.75;88.60
16451;BME280;12243;42.708;23.310;2022-09-09T02:04:48;95216.31;;;17.61;89.45
16451;BME280;12243;42.708;23.310;2022-09-09T02:07:30;95223.06;;;17.55;89.82
16451;BME280;12243;42.708;23.310;2022-09-09T02:10:03;95232.28;;;17.51;90.70
16451;BME280;12243;42.708;23.310;2022-09-09T02:12:34;95211.88;;;17.45;90.47
16451;BME280;12243;42.708;23.310;2022-09-09T02:15:07;95204.31;;;17.42;90.81
16451;BME280;12243;42.708;23.310;2022-09-09T02:17:46;95203.50;;;17.33;91.22
16451;BME280;12243;42.708;23.310;2022-09-09T02:20:15;95204.66;;;17.31;91.89
16451;BME280;12243;42.708;23.310;2022-09-09T02:22:56;95203.31;;;17.43;91.97
16451;BME280;12243;42.708;23.310;2022-09-09T02:25:26;95204.31;;;17.50;91.52
16451;BME280;12243;42.708;23.310;2022-09-09T02:28:02;95213.38;;;17.48;91.58
16451;BME280;12243;42.708;23.310;2022-09-09T02:30:32;95214.50;;;17.53;91.07
16451;BME280;12243;42.708;23.310;2022-09-09T02:33:03;95220.75;;;17.52;90.61
16451;BME280;12243;42.708;23.310;2022-09-09T02:35:51;95221.41;;;17.46;91.31
16451;BME280;12243;42.708;23.310;2022-09-09T02:38:25;95221.44;;;17.38;91.20
16451;BME280;12243;42.708;23.310;2022-09-09T02:41:01;95220.28;;;17.41;91.88
16451;BME280;12243;42.708;23.310;2022-09-09T02:43:32;95229.97;;;17.32;91.90
16451;BME280;12243;42.708;23.310;2022-09-09T02:46:05;95234.78;;;17.36;91.68
16451;BME280;12243;42.708;23.310;2022-09-09T02:48:43;95230.97;;;17.39;90.78
16451;BME280;12243;42.708;23.310;2022-09-09T02:51:19;95227.34;;;17.32;91.44
16451;BME280;12243;42.708;23.310;2022-09-09T02:53:57;95217.31;;;17.19;92.23
16451;BME280;12243;42.708;23.310;2022-09-09T02:56:30;95226.19;;;17.18;91.90
16451;BME280;12243;42.708;23.310;2022-09-09T02:59:04;95223.09;;;17.23;92.02
16451;BME280;12243;42.708;23.310;2022-09-09T03:01:37;95222.09;;;17.24;92.02
16451;BME280;12243;42.708;23.310;2022-09-09T03:04:09;95230.31;;;17.12;92.81
16451;BME280;12243;42.708;23.310;2022-09-09T03:06:38;95235.25;;;17.24;93.00
16451;BME280;12243;42.708;23.310;2022-09-09T03:09:18;95236.88;;;17.25;92.39
16451;BME280;12243;42.708;23.310;2022-09-09T03:11:47;95229.31;;;17.05;92.97
16451;BME280;12243;42.708;23.310;2022-09-09T03:14:35;95225.03;;;17.04;93.75
16451;BME280;12243;42.708;23.310;2022-09-09T03:17:04;95234.56;;;16.97;93.92
16451;BME280;12243;42.708;23.310;2022-09-09T03:19:42;95231.59;;;16.92;94.79
16451;BME280;12243;42.708;23.310;2022-09-09T03:22:12;95223.84;;;16.90;94.38
16451;BME280;12243;42.708;23.310;2022-09-09T03:24:45;95220.91;;;16.94;94.00
16451;BME280;12243;42.708;23.310;2022-09-09T03:27:17;95222.38;;;16.96;93.79
16451;BME280;12243;42.708;23.310;2022-09-09T03:29:49;95222.06;;;16.99;93.21
16451;BME280;12243;42.708;23.310;2022-09-09T03:32:23;95225.00;;;16.88;93.48
16451;BME280;12243;42.708;23.310;2022-09-09T03:34:53;95223.66;;;16.84;93.89
16451;BME280;12243;42.708;23.310;2022-09-09T03:37:21;95227.78;;;16.86;94.23
16451;BME280;12243;42.708;23.310;2022-09-09T03:39:55;95221.72;;;16.86;94.38
16451;BME280;12243;42.708;23.310;2022-09-09T03:42:32;95222.84;;;16.83;94.38
16451;BME280;12243;42.708;23.310;2022-09-09T03:45:01;95219.06;;;16.78;94.72
16451;BME280;12243;42.708;23.310;2022-09-09T03:47:33;95227.94;;;16.77;94.83
16451;BME280;12243;42.708;23.310;2022-09-09T03:50:13;95229.59;;;16.78;94.39
16451;BME280;12243;42.708;23.310;2022-09-09T03:52:47;95236.19;;;16.82;94.91
16451;BME280;12243;42.708;23.310;2022-09-09T03:55:20;95229.78;;;16.84;94.57
16451;BME280;12243;42.708;23.310;2022-09-09T03:57:51;95236.19;;;16.82;94.65
16451;BME280;12243;42.708;23.310;2022-09-09T04:00:27;95232.22;;;16.86;93.93
16451;BME280;12243;42.708;23.310;2022-09-09T04:02:56;95242.09;;;16.84;94.47
16451;BME280;12243;42.708;23.310;2022-09-09T04:05:23;95238.19;;;16.96;93.57
16451;BME280;12243;42.708;23.310;2022-09-09T04:07:53;95237.34;;;17.04;92.96
16451;BME280;12243;42.708;23.310;2022-09-09T04:10:24;95231.28;;;17.11;92.26
16451;BME280;12243;42.708;23.310;2022-09-09T04:12:58;95236.03;;;17.00;92.52
16451;BME280;12243;42.708;23.310;2022-09-09T04:15:43;95237.84;;;16.99;92.97
16451;BME280;12243;42.708;23.310;2022-09-09T04:18:31;95228.47;;;17.05;92.60
16451;BME280;12243;42.708;23.310;2022-09-09T04:21:00;95226.19;;;17.02;92.20
16451;BME280;12243;42.708;23.310;2022-09-09T04:23:33;95229.28;;;16.97;92.83
16451;BME280;12243;42.708;23.310;2022-09-09T04:26:08;95230.59;;;17.01;93.20
16451;BME280;12243;42.708;23.310;2022-09-09T04:28:40;95239.84;;;17.05;92.61
16451;BME280;12243;42.708;23.310;2022-09-09T04:31:18;95241.34;;;17.16;92.49
16451;BME280;12243;42.708;23.310;2022-09-09T04:33:52;95238.88;;;17.31;91.61
16451;BME280;12243;42.708;23.310;2022-09-09T04:36:36;95234.78;;;17.36;90.80
16451;BME280;12243;42.708;23.310;2022-09-09T04:39:06;95245.44;;;17.43;90.37
16451;BME280;12243;42.708;23.310;2022-09-09T04:41:38;95243.97;;;17.49;90.04
16451;BME280;12243;42.708;23.310;2022-09-09T04:44:10;95237.22;;;17.54;90.26
16451;BME280;12243;42.708;23.310;2022-09-09T04:46:40;95241.16;;;17.67;89.75
16451;BME280;12243;42.708;23.310;2022-09-09T04:49:09;95238.22;;;17.78;88.49
16451;BME280;12243;42.708;23.310;2022-09-09T04:51:36;95241.19;;;17.83;87.64
16451;BME280;12243;42.708;23.310;2022-09-09T04:54:04;95230.63;;;17.99;86.68
16451;BME280;12243;42.708;23.310;2022-09-09T04:56:34;95221.69;;;18.17;86.20
16451;BME280;12243;42.708;23.310;2022-09-09T04:59:07;95215.50;;;18.32;85.64
16451;BME280;12243;42.708;23.310;2022-09-09T05:02:01;95229.41;;;18.57;84.84
16451;BME280;12243;42.708;23.310;2022-09-09T05:04:29;95233.47;;;18.76;83.05
16451;BME280;12243;42.708;23.310;2022-09-09T05:06:57;95229.56;;;18.95;81.69
16451;BME280;12243;42.708;23.310;2022-09-09T05:09:26;95218.22;;;19.18;80.13
16451;BME280;12243;42.708;23.310;2022-09-09T05:11:57;95215.44;;;19.34;78.83
16451;BME280;12243;42.708;23.310;2022-09-09T05:14:33;95221.38;;;19.36;78.59
16451;BME280;12243;42.708;23.310;2022-09-09T05:17:16;95233.13;;;19.48;78.17
16451;BME280;12243;42.708;23.310;2022-09-09T05:19:47;95224.50;;;19.55;78.25
16451;BME280;12243;42.708;23.310;2022-09-09T05:22:19;95221.41;;;19.74;76.84
16451;BME280;12243;42.708;23.310;2022-09-09T05:24:58;95218.78;;;19.74;76.57
16451;BME280;12243;42.708;23.310;2022-09-09T05:27:27;95220.75;;;19.72;77.30
16451;BME280;12243;42.708;23.310;2022-09-09T05:29:59;95213.75;;;19.79;76.40
16451;BME280;12243;42.708;23.310;2022-09-09T05:32:34;95223.63;;;19.85;76.96
16451;BME280;12243;42.708;23.310;2022-09-09T05:35:06;95223.47;;;20.02;76.32
16451;BME280;12243;42.708;23.310;2022-09-09T05:37:34;95219.69;;;20.11;75.60
16451;BME280;12243;42.708;23.310;2022-09-09T05:40:10;95220.63;;;20.33;75.53
16451;BME280;12243;42.708;23.310;2022-09-09T05:42:41;95224.56;;;20.52;74.03
16451;BME280;12243;42.708;23.310;2022-09-09T05:45:09;95231.09;;;20.70;73.26
16451;BME280;12243;42.708;23.310;2022-09-09T05:47:39;95221.31;;;20.86;73.01
16451;BME280;12243;42.708;23.310;2022-09-09T05:50:10;95226.50;;;21.15;71.72
16451;BME280;12243;42.708;23.310;2022-09-09T05:52:40;95234.00;;;21.33;70.48
16451;BME280;12243;42.708;23.310;2022-09-09T05:55:12;95227.69;;;21.49;69.51
16451;BME280;12243;42.708;23.310;2022-09-09T05:57:42;95222.94;;;21.66;68.93
16451;BME280;12243;42.708;23.310;2022-09-09T06:00:15;95227.06;;;21.75;67.58
16451;BME280;12243;42.708;23.310;2022-09-09T06:02:51;95226.13;;;21.61;68.63
16451;BME280;12243;42.708;23.310;2022-09-09T06:05:20;95245.03;;;21.73;68.23
16451;BME280;12243;42.708;23.310;2022-09-09T06:07:52;95244.53;;;21.91;66.78
16451;BME280;12243;42.708;23.310;2022-09-09T06:10:25;95244.44;;;22.06;66.46
16451;BME280;12243;42.708;23.310;2022-09-09T06:13:07;95242.03;;;22.11;66.47
16451;BME280;12243;42.708;23.310;2022-09-09T06:15:38;95230.34;;;22.33;65.47
16451;BME280;12243;42.708;23.310;2022-09-09T06:18:11;95239.47;;;22.59;64.17
16451;BME280;12243;42.708;23.310;2022-09-09T06:20:40;95242.03;;;22.80;63.57
16451;BME280;12243;42.708;23.310;2022-09-09T06:23:11;95240.41;;;22.86;61.69
16451;BME280;12243;42.708;23.310;2022-09-09T06:25:44;95235.50;;;22.90;60.87
16451;BME280;12243;42.708;23.310;2022-09-09T06:28:18;95244.19;;;23.05;61.05
16451;BME280;12243;42.708;23.310;2022-09-09T06:30:48;95242.97;;;23.14;60.42
16451;BME280;12243;42.708;23.310;2022-09-09T06:33:18;95241.00;;;23.29;59.69
16451;BME280;12243;42.708;23.310;2022-09-09T06:35:51;95227.91;;;23.35;60.17
16451;BME280;12243;42.708;23.310;2022-09-09T06:38:27;95223.78;;;23.25;59.81
16451;BME280;12243;42.708;23.310;2022-09-09T06:40:59;95225.03;;;23.43;59.89
16451;BME280;12243;42.708;23.310;2022-09-09T06:43:32;95223.63;;;23.60;58.00
16451;BME280;12243;42.708;23.310;2022-09-09T06:46:03;95213.19;;;23.52;57.66
16451;BME280;12243;42.708;23.310;2022-09-09T06:48:38;95215.22;;;23.50;57.34
16451;BME280;12243;42.708;23.310;2022-09-09T06:51:15;95225.47;;;23.53;56.52
16451;BME280;12243;42.708;23.310;2022-09-09T06:53:45;95228.94;;;23.67;56.07
16451;BME280;12243;42.708;23.310;2022-09-09T06:56:22;95236.16;;;23.99;54.79
16451;BME280;12243;42.708;23.310;2022-09-09T06:58:54;95243.28;;;24.12;54.16
16451;BME280;12243;42.708;23.310;2022-09-09T07:01:28;95237.94;;;24.32;53.30
16451;BME280;12243;42.708;23.310;2022-09-09T07:04:03;95240.38;;;24.34;52.57
16451;BME280;12243;42.708;23.310;2022-09-09T07:06:36;95241.41;;;24.46;52.68
16451;BME280;12243;42.708;23.310;2022-09-09T07:09:14;95242.19;;;24.66;52.83
16451;BME280;12243;42.708;23.310;2022-09-09T07:11:46;95236.19;;;24.78;51.90
16451;BME280;12243;42.708;23.310;2022-09-09T07:14:23;95235.34;;;24.84;51.42
16451;BME280;12243;42.708;23.310;2022-09-09T07:17:14;95226.88;;;25.00;51.23
16451;BME280;12243;42.708;23.310;2022-09-09T07:19:45;95235.91;;;24.92;51.30
16451;BME280;12243;42.708;23.310;2022-09-09T07:22:16;95233.88;;;24.94;51.23
16451;BME280;12243;42.708;23.310;2022-09-09T07:24:58;95233.88;;;24.94;51.81
16451;BME280;12243;42.708;23.310;2022-09-09T07:27:25;95223.56;;;25.11;50.72
16451;BME280;12243;42.708;23.310;2022-09-09T07:29:52;95230.13;;;25.47;50.00
16451;BME280;12243;42.708;23.310;2022-09-09T07:32:19;95232.19;;;25.77;48.80
16451;BME280;12243;42.708;23.310;2022-09-09T07:34:47;95219.78;;;25.89;48.40
16451;BME280;12243;42.708;23.310;2022-09-09T07:37:15;95216.06;;;25.90;48.07
16451;BME280;12243;42.708;23.310;2022-09-09T07:39:44;95218.16;;;25.88;48.63
16451;BME280;12243;42.708;23.310;2022-09-09T07:42:12;95224.41;;;26.00;48.75
16451;BME280;12243;42.708;23.310;2022-09-09T07:44:40;95223.25;;;26.14;48.24
16451;BME280;12243;42.708;23.310;2022-09-09T07:47:10;95231.25;;;26.14;47.95
16451;BME280;12243;42.708;23.310;2022-09-09T07:49:55;95228.13;;;26.18;49.06
16451;BME280;12243;42.708;23.310;2022-09-09T07:52:26;95227.66;;;26.46;47.60
16451;BME280;12243;42.708;23.310;2022-09-09T07:54:58;95229.84;;;26.55;47.28
16451;BME280;12243;42.708;23.310;2022-09-09T07:57:25;95229.63;;;26.75;46.72
16451;BME280;12243;42.708;23.310;2022-09-09T07:59:53;95222.47;;;27.06;45.97
16451;BME280;12243;42.708;23.310;2022-09-09T08:02:22;95225.88;;;27.43;45.84
16451;BME280;12243;42.708;23.310;2022-09-09T08:04:49;95218.09;;;27.53;44.50
16451;BME280;12243;42.708;23.310;2022-09-09T08:07:19;95226.19;;;27.65;43.71
16451;BME280;12243;42.708;23.310;2022-09-09T08:09:51;95223.34;;;27.48;43.90
16451;BME280;12243;42.708;23.310;2022-09-09T08:12:26;95224.25;;;27.42;44.64
16451;BME280;12243;42.708;23.310;2022-09-09T08:14:53;95223.78;;;27.45;44.90
16451;BME280;12243;42.708;23.310;2022-09-09T08:17:21;95212.19;;;27.51;45.37
16451;BME280;12243;42.708;23.310;2022-09-09T08:19:48;95216.41;;;27.71;44.00
16451;BME280;12243;42.708;23.310;2022-09-09T08:22:22;95222.28;;;27.80;44.40
16451;BME280;12243;42.708;23.310;2022-09-09T08:24:51;95221.59;;;27.96;44.56
16451;BME280;12243;42.708;23.310;2022-09-09T08:27:18;95223.59;;;28.36;43.63
16451;BME280;12243;42.708;23.310;2022-09-09T08:29:45;95216.19;;;28.78;42.49
16451;BME280;12243;42.708;23.310;2022-09-09T08:32:13;95221.78;;;28.88;41.59
16451;BME280;12243;42.708;23.310;2022-09-09T08:34:40;95214.59;;;28.77;42.11
16451;BME280;12243;42.708;23.310;2022-09-09T08:37:12;95209.00;;;28.67;42.95
16451;BME280;12243;42.708;23.310;2022-09-09T08:39:42;95219.13;;;28.65;42.48
16451;BME280;12243;42.708;23.310;2022-09-09T08:42:27;95204.47;;;28.67;42.28
16451;BME280;12243;42.708;23.310;2022-09-09T08:45:17;95205.13;;;28.75;41.35
16451;BME280;12243;42.708;23.310;2022-09-09T08:48:06;95210.28;;;28.64;42.21
16451;BME280;12243;42.708;23.310;2022-09-09T08:50:38;95207.41;;;28.94;42.51
16451;BME280;12243;42.708;23.310;2022-09-09T08:53:17;95202.50;;;29.32;41.66
16451;BME280;12243;42.708;23.310;2022-09-09T08:55:49;95210.25;;;29.45;40.60
16451;BME280;12243;42.708;23.310;2022-09-09T08:58:24;95212.53;;;29.65;40.49
16451;BME280;12243;42.708;23.310;2022-09-09T09:01:19;95201.53;;;29.83;40.01
16451;BME280;12243;42.708;23.310;2022-09-09T09:04:00;95202.19;;;29.90;39.72
16451;BME280;12243;42.708;23.310;2022-09-09T09:06:43;95202.84;;;29.98;39.46
16451;BME280;12243;42.708;23.310;2022-09-09T09:09:21;95199.97;;;29.87;39.92
16451;BME280;12243;42.708;23.310;2022-09-09T09:11:54;95199.59;;;29.96;39.55
16451;BME280;12243;42.708;23.310;2022-09-09T09:14:28;95199.75;;;30.06;39.86
16451;BME280;12243;42.708;23.310;2022-09-09T09:17:02;95195.53;;;30.27;39.88
16451;BME280;12243;42.708;23.310;2022-09-09T09:19:32;95191.28;;;30.14;39.23
16451;BME280;12243;42.708;23.310;2022-09-09T09:22:04;95194.53;;;29.99;40.23
16451;BME280;12243;42.708;23.310;2022-09-09T09:24:40;95198.44;;;30.08;40.28
16451;BME280;12243;42.708;23.310;2022-09-09T09:27:12;95201.72;;;30.27;39.87
16451;BME280;12243;42.708;23.310;2022-09-09T09:29:44;95200.34;;;30.47;38.89
16451;BME280;12243;42.708;23.310;2022-09-09T09:32:17;95199.22;;;30.43;38.76
16451;BME280;12243;42.708;23.310;2022-09-09T09:34:48;95197.28;;;30.38;39.13
16451;BME280;12243;42.708;23.310;2022-09-09T09:37:17;95197.59;;;30.42;38.74
16451;BME280;12243;42.708;23.310;2022-09-09T09:39:47;95193.34;;;30.46;39.26
16451;BME280;12243;42.708;23.310;2022-09-09T09:42:17;95182.38;;;30.69;38.79
16451;BME280;12243;42.708;23.310;2022-09-09T09:44:46;95178.59;;;30.70;38.78
16451;BME280;12243;42.708;23.310;2022-09-09T09:47:19;95179.88;;;30.84;38.65
16451;BME280;12243;42.708;23.310;2022-09-09T09:50:16;95171.91;;;30.90;38.52
16451;BME280;12243;42.708;23.310;2022-09-09T09:52:53;95172.13;;;30.66;39.11
16451;BME280;12243;42.708;23.310;2022-09-09T09:55:21;95170.72;;;30.42;39.52
16451;BME280;12243;42.708;23.310;2022-09-09T09:57:51;95163.28;;;30.27;39.97
16451;BME280;12243;42.708;23.310;2022-09-09T10:00:21;95161.72;;;30.14;40.97
16451;BME280;12243;42.708;23.310;2022-09-09T10:03:00;95158.06;;;30.20;40.28
16451;BME280;12243;42.708;23.310;2022-09-09T10:05:32;95171.84;;;30.24;39.82
16451;BME280;12243;42.708;23.310;2022-09-09T10:08:11;95169.03;;;30.02;40.39
16451;BME280;12243;42.708;23.310;2022-09-09T10:10:53;95174.19;;;29.86;40.69
16451;BME280;12243;42.708;23.310;2022-09-09T10:13:29;95178.34;;;29.77;41.41
16451;BME280;12243;42.708;23.310;2022-09-09T10:16:12;95180.00;;;29.50;41.23
16451;BME280;12243;42.708;23.310;2022-09-09T10:18:58;95185.78;;;29.41;41.97
16451;BME280;12243;42.708;23.310;2022-09-09T10:21:41;95178.72;;;29.07;42.91
16451;BME280;12243;42.708;23.310;2022-09-09T10:27:05;95176.97;;;28.60;43.95
16451;BME280;12243;42.708;23.310;2022-09-09T10:29:57;95180.72;;;28.59;44.47
16451;BME280;12243;42.708;23.310;2022-09-09T10:32:43;95181.78;;;28.46;44.14
16451;BME280;12243;42.708;23.310;2022-09-09T10:35:19;95177.69;;;28.20;44.88
16451;BME280;12243;42.708;23.310;2022-09-09T10:38:01;95179.00;;;28.18;45.27
16451;BME280;12243;42.708;23.310;2022-09-09T10:40:33;95183.88;;;28.21;45.11
16451;BME280;12243;42.708;23.310;2022-09-09T10:43:25;95182.59;;;28.12;45.46
16451;BME280;12243;42.708;23.310;2022-09-09T10:46:07;95190.63;;;28.12;46.16
16451;BME280;12243;42.708;23.310;2022-09-09T10:48:47;95190.41;;;28.01;45.53
16451;BME280;12243;42.708;23.310;2022-09-09T10:51:22;95191.78;;;27.92;46.56
16451;BME280;12243;42.708;23.310;2022-09-09T10:54:01;95187.84;;;27.83;47.41
16451;BME280;12243;42.708;23.310;2022-09-09T10:56:36;95185.25;;;27.88;47.26
16451;BME280;12243;42.708;23.310;2022-09-09T10:59:09;95186.88;;;27.89;47.94
16451;BME280;12243;42.708;23.310;2022-09-09T11:01:43;95183.97;;;28.02;46.69
16451;BME280;12243;42.708;23.310;2022-09-09T11:04:17;95176.91;;;27.96;47.06
16451;BME280;12243;42.708;23.310;2022-09-09T11:06:49;95180.56;;;27.72;48.05
16451;BME280;12243;42.708;23.310;2022-09-09T11:09:22;95179.63;;;27.66;48.43
16451;BME280;12243;42.708;23.310;2022-09-09T11:11:52;95176.25;;;27.59;48.56
16451;BME280;12243;42.708;23.310;2022-09-09T11:14:26;95175.28;;;27.42;49.66
16451;BME280;12243;42.708;23.310;2022-09-09T11:17:00;95172.16;;;27.45;49.33
16451;BME280;12243;42.708;23.310;2022-09-09T11:19:31;95166.09;;;27.49;49.25
16451;BME280;12243;42.708;23.310;2022-09-09T11:22:02;95155.44;;;27.73;49.58
16451;BME280;12243;42.708;23.310;2022-09-09T11:24:36;95160.84;;;27.96;49.30
16451;BME280;12243;42.708;23.310;2022-09-09T11:27:11;95161.31;;;27.93;49.54
16451;BME280;12243;42.708;23.310;2022-09-09T11:38:59;95131.69;;;28.35;49.23
16451;BME280;12243;42.708;23.310;2022-09-09T11:41:34;95119.56;;;28.33;48.31
16451;BME280;12243;42.708;23.310;2022-09-09T11:44:10;95121.44;;;28.32;48.11
16451;BME280;12243;42.708;23.310;2022-09-09T11:46:38;95106.53;;;28.24;48.67
16451;BME280;12243;42.708;23.310;2022-09-09T11:49:26;95106.50;;;28.36;48.83
16451;BME280;12243;42.708;23.310;2022-09-09T11:51:55;95084.22;;;28.59;48.42
16451;BME280;12243;42.708;23.310;2022-09-09T11:54:31;95081.28;;;28.61;48.62
16451;BME280;12243;42.708;23.310;2022-09-09T11:57:21;95094.03;;;28.82;48.76
16451;BME280;12243;42.708;23.310;2022-09-09T11:59:50;95097.53;;;29.28;47.37
16451;BME280;12243;42.708;23.310;2022-09-09T12:02:22;95112.06;;;29.61;45.70
16451;BME280;12243;42.708;23.310;2022-09-09T12:04:56;95097.72;;;29.72;45.29
16451;BME280;12243;42.708;23.310;2022-09-09T12:07:34;95101.41;;;30.05;44.72
16451;BME280;12243;42.708;23.310;2022-09-09T12:10:17;95096.09;;;30.49;43.99
16451;BME280;12243;42.708;23.310;2022-09-09T12:12:47;95091.31;;;30.78;43.23
16451;BME280;12243;42.708;23.310;2022-09-09T12:15:23;95082.16;;;31.01;43.12
16451;BME280;12243;42.708;23.310;2022-09-09T12:17:52;95081.13;;;31.07;42.83
16451;BME280;12243;42.708;23.310;2022-09-09T12:20:22;95081.66;;;31.04;43.01
16451;BME280;12243;42.708;23.310;2022-09-09T12:26:03;95075.56;;;30.87;43.95
16451;BME280;12243;42.708;23.310;2022-09-09T12:28:50;95066.91;;;31.12;44.11
16451;BME280;12243;42.708;23.310;2022-09-09T12:31:24;95068.72;;;31.33;42.77
16451;BME280;12243;42.708;23.310;2022-09-09T12:33:54;95058.53;;;31.35;42.81
16451;BME280;12243;42.708;23.310;2022-09-09T12:36:24;95049.94;;;31.38;42.93
16451;BME280;12243;42.708;23.310;2022-09-09T12:38:56;95049.97;;;30.84;44.09
16451;BME280;12243;42.708;23.310;2022-09-09T12:41:29;95051.16;;;30.44;45.46
16451;BME280;12243;42.708;23.310;2022-09-09T12:44:03;95051.88;;;30.40;45.97
16451;BME280;12243;42.708;23.310;2022-09-09T12:46:35;95047.81;;;30.15;45.83
16451;BME280;12243;42.708;23.310;2022-09-09T12:49:04;95052.53;;;29.86;46.21
16451;BME280;12243;42.708;23.310;2022-09-09T12:51:36;95042.91;;;29.68;47.33
16451;BME280;12243;42.708;23.310;2022-09-09T12:54:05;95044.50;;;29.69;47.02
16451;BME280;12243;42.708;23.310;2022-09-09T12:56:34;95037.81;;;29.88;46.76
16451;BME280;12243;42.708;23.310;2022-09-09T12:59:02;95049.81;;;30.03;46.08
16451;BME280;12243;42.708;23.310;2022-09-09T13:01:32;95043.09;;;30.22;45.89
16451;BME280;12243;42.708;23.310;2022-09-09T13:04:01;95039.97;;;30.30;45.39
16451;BME280;12243;42.708;23.310;2022-09-09T13:06:30;95039.34;;;30.23;45.35
16451;BME280;12243;42.708;23.310;2022-09-09T13:08:58;95049.31;;;30.06;45.56
16451;BME280;12243;42.708;23.310;2022-09-09T13:11:31;95048.03;;;29.91;46.32
16451;BME280;12243;42.708;23.310;2022-09-09T13:14:12;95036.66;;;29.84;45.88
16451;BME280;12243;42.708;23.310;2022-09-09T13:16:55;95031.09;;;29.69;46.78
16451;BME280;12243;42.708;23.310;2022-09-09T13:19:23;95022.31;;;29.96;46.36
16451;BME280;12243;42.708;23.310;2022-09-09T13:21:54;95018.81;;;30.17;45.92
16451;BME280;12243;42.708;23.310;2022-09-09T13:24:30;95004.50;;;30.33;45.82
16451;BME280;12243;42.708;23.310;2022-09-09T13:26:59;95004.00;;;30.36;45.92
16451;BME280;12243;42.708;23.310;2022-09-09T13:29:31;95003.34;;;30.24;45.85
16451;BME280;12243;42.708;23.310;2022-09-09T13:32:04;95005.59;;;29.88;47.01
16451;BME280;12243;42.708;23.310;2022-09-09T13:34:35;94998.94;;;29.74;47.30
16451;BME280;12243;42.708;23.310;2022-09-09T13:37:05;95003.69;;;29.50;47.63
16451;BME280;12243;42.708;23.310;2022-09-09T13:39:34;94996.06;;;29.25;48.60